createdAt,value
2019-03-08T00:00:22.063Z,64.60
2019-03-08T00:05:16.313Z,64.79
2019-03-08T00:10:10.466Z,65.10
2019-03-08T00:15:06.910Z,64.72
2019-03-08T00:20:00.769Z,64.50
2019-03-08T00:24:54.820Z,64.91
2019-03-08T00:29:48.674Z,65.41
2019-03-08T00:34:42.546Z,65.60
2019-03-08T00:39:36.445Z,65.17
2019-03-08T00:44:30.295Z,65.21
2019-03-08T00:49:26.927Z,65.52
2019-03-08T00:54:20.772Z,65.10
2019-03-08T00:59:14.716Z,65.10
2019-03-08T01:04:08.607Z,65.70
2019-03-08T01:09:05.160Z,66.93
2019-03-08T01:13:58.979Z,69.08
2019-03-08T01:18:52.832Z,72.60
2019-03-08T01:23:46.692Z,73.47
2019-03-08T01:28:40.573Z,74.16
2019-03-08T01:33:34.537Z,73.49
2019-03-08T01:38:28.489Z,73.98
2019-03-08T01:43:22.349Z,73.75
2019-03-08T01:48:16.389Z,72.90
2019-03-08T01:53:10.243Z,73.63
2019-03-08T01:58:04.167Z,73.87
2019-03-08T02:02:58.207Z,75.01
2019-03-08T02:07:52.151Z,78.31
2019-03-08T02:12:46.000Z,79.42
2019-03-08T02:17:39.955Z,79.33
2019-03-08T02:22:34.105Z,79.85
2019-03-08T02:27:27.968Z,77.76
2019-03-08T02:32:21.798Z,77.76
2019-03-08T02:37:15.757Z,77.21
2019-03-08T02:42:09.588Z,76.66
2019-03-08T02:47:03.535Z,77.15
2019-03-08T02:51:57.377Z,77.08
2019-03-08T02:56:51.416Z,76.91
2019-03-08T03:01:45.443Z,76.39
2019-03-08T03:06:39.275Z,76.34
2019-03-08T03:11:33.131Z,76.18
2019-03-08T03:16:26.987Z,77.23
2019-03-08T03:21:20.850Z,77.79
2019-03-08T03:26:14.705Z,82.17
2019-03-08T03:31:08.616Z,85.00
2019-03-08T03:36:02.449Z,86.22
2019-03-08T03:40:56.395Z,88.13
2019-03-08T03:45:50.353Z,88.87
2019-03-08T03:50:44.210Z,87.52
2019-03-08T03:55:38.165Z,88.43
2019-03-08T04:00:32.033Z,88.71
2019-03-08T04:05:25.913Z,89.37
2019-03-08T04:10:20.000Z,89.02
2019-03-08T04:15:15.364Z,89.62
2019-03-08T04:20:13.343Z,88.99
2019-03-08T04:25:08.431Z,89.47
2019-03-08T04:30:04.479Z,89.61
2019-03-08T04:34:58.316Z,89.46
2019-03-08T04:39:52.178Z,89.42
2019-03-08T04:44:46.032Z,89.43
2019-03-08T04:49:39.888Z,89.66
2019-03-08T04:54:34.046Z,89.65
2019-03-08T04:59:27.919Z,89.52
2019-03-08T05:04:21.773Z,89.58
2019-03-08T05:09:15.607Z,88.88
2019-03-08T05:14:09.480Z,88.69
2019-03-08T05:19:03.435Z,88.73
2019-03-08T05:23:57.388Z,88.58
2019-03-08T05:28:53.270Z,88.69
2019-03-08T05:33:47.210Z,88.79
2019-03-08T05:38:41.112Z,88.63
2019-03-08T05:43:35.039Z,89.01
2019-03-08T05:48:28.883Z,88.64
2019-03-08T05:53:22.749Z,88.28
2019-03-08T05:58:16.738Z,88.55
2019-03-08T06:03:10.972Z,88.35
2019-03-08T06:08:04.820Z,87.86
2019-03-08T06:13:00.142Z,87.44
2019-03-08T06:17:54.113Z,87.93
2019-03-08T06:22:47.991Z,87.91
2019-03-08T06:27:41.857Z,87.68
2019-03-08T06:32:35.816Z,87.70
2019-03-08T06:37:29.786Z,87.76
2019-03-08T06:42:23.754Z,87.76
2019-03-08T06:47:17.729Z,86.81
2019-03-08T06:52:11.604Z,86.82
2019-03-08T06:57:05.630Z,86.33
2019-03-08T07:01:59.628Z,85.72
2019-03-08T07:06:53.489Z,85.73
2019-03-08T07:11:47.382Z,85.00
2019-03-08T07:16:41.228Z,84.77
2019-03-08T07:21:42.846Z,84.40
2019-03-08T07:26:53.881Z,83.60
2019-03-08T07:31:52.644Z,83.43
2019-03-08T07:36:57.481Z,81.96
2019-03-08T07:42:10.003Z,81.48
2019-03-08T07:47:22.432Z,81.91
2019-03-08T07:52:18.217Z,80.29
2019-03-08T07:57:16.820Z,80.13
2019-03-08T08:02:12.690Z,80.87
2019-03-08T08:07:20.133Z,81.14
2019-03-08T08:12:18.871Z,80.62
2019-03-08T08:17:14.631Z,79.41
2019-03-08T08:22:19.466Z,79.44
2019-03-08T08:27:20.974Z,78.27
2019-03-08T08:32:22.574Z,78.48
2019-03-08T08:37:35.388Z,76.98
2019-03-08T08:42:37.106Z,74.44
2019-03-08T08:47:32.898Z,72.25
2019-03-08T08:52:45.361Z,70.61
2019-03-08T08:57:57.690Z,69.71
2019-03-08T09:03:10.138Z,67.34
2019-03-08T09:08:08.641Z,65.87
2019-03-08T09:13:16.618Z,65.27
2019-03-08T09:18:29.561Z,66.12
2019-03-08T09:23:31.687Z,65.31
2019-03-08T09:28:44.282Z,65.62
2019-03-08T09:33:40.399Z,64.34
2019-03-08T09:38:38.737Z,62.63
2019-03-08T09:43:34.549Z,60.27
2019-03-08T09:48:30.275Z,59.23
2019-03-08T09:53:26.177Z,55.08
2019-03-08T09:58:21.945Z,55.78
2019-03-08T10:03:18.423Z,55.97
2019-03-08T10:08:19.850Z,60.40
2019-03-08T10:13:18.173Z,61.04
2019-03-08T10:18:20.047Z,60.38
2019-03-08T10:23:20.097Z,62.32
2019-03-08T10:28:22.102Z,61.78
2019-03-08T10:33:23.663Z,61.44
2019-03-08T10:38:23.081Z,59.92
2019-03-08T10:43:31.055Z,58.13
2019-03-08T10:48:32.591Z,57.88
2019-03-08T10:53:40.508Z,56.95
2019-03-08T10:58:48.533Z,58.18
2019-03-08T11:03:44.652Z,56.81
2019-03-08T11:08:49.261Z,52.37
2019-03-08T11:14:01.975Z,50.92
2019-03-08T11:19:08.523Z,50.88
2019-03-08T11:24:16.512Z,47.82
2019-03-08T11:29:27.372Z,43.07
2019-03-08T11:34:40.249Z,42.68
2019-03-08T11:39:36.034Z,34.67
2019-03-08T11:44:31.823Z,31.51
2019-03-08T11:49:30.778Z,30.48
2019-03-08T11:54:26.550Z,35.27
2019-03-08T11:59:25.327Z,31.64
2019-03-08T12:04:27.012Z,24.92
2019-03-08T12:09:28.537Z,21.46
2019-03-08T12:14:30.348Z,20.94
2019-03-08T12:19:29.173Z,30.99
2019-03-08T12:24:30.525Z,34.45
2019-03-08T12:29:35.108Z,35.51
2019-03-08T12:34:30.869Z,36.27
2019-03-08T12:39:32.622Z,28.75
2019-03-08T12:44:34.383Z,31.81
2019-03-08T12:49:48.393Z,22.26
2019-03-08T12:54:53.621Z,25.10
2019-03-08T12:59:52.204Z,31.82
2019-03-08T13:04:59.894Z,22.40
2019-03-08T13:09:55.773Z,18.79
2019-03-08T13:14:49.705Z,17.30
2019-03-08T13:19:43.847Z,17.33
2019-03-08T13:24:37.710Z,16.41
2019-03-08T13:29:31.548Z,18.23
2019-03-08T13:34:25.415Z,17.60
2019-03-08T13:39:19.309Z,19.66
2019-03-08T13:44:13.374Z,32.64
2019-03-08T13:49:07.309Z,38.56
2019-03-08T13:54:01.601Z,41.05
2019-03-08T13:58:55.488Z,42.22
2019-03-08T14:03:49.394Z,42.61
2019-03-08T14:08:43.227Z,41.21
2019-03-08T14:13:37.128Z,40.74
2019-03-08T14:18:30.991Z,36.34
2019-03-08T14:23:24.843Z,39.08
2019-03-08T14:28:19.098Z,41.09
2019-03-08T14:33:12.976Z,38.59
2019-03-08T14:38:07.859Z,36.06
2019-03-08T14:43:06.689Z,38.11
2019-03-08T14:48:00.567Z,39.61
2019-03-08T14:52:55.772Z,39.71
2019-03-08T14:57:50.680Z,39.71
2019-03-08T15:02:47.116Z,36.06
2019-03-08T15:07:41.054Z,22.88
2019-03-08T15:12:36.462Z,16.74
2019-03-08T15:17:32.057Z,21.79
2019-03-08T15:22:26.045Z,15.65
2019-03-08T15:27:19.964Z,19.50
2019-03-08T15:32:13.918Z,14.91
2019-03-08T15:37:07.914Z,14.83
2019-03-08T15:42:02.335Z,16.42
2019-03-08T15:46:59.240Z,17.05
2019-03-08T15:51:53.362Z,20.02
2019-03-08T15:56:47.274Z,20.35
2019-03-08T16:01:41.367Z,20.26
2019-03-08T16:06:35.346Z,26.98
2019-03-08T16:11:29.220Z,31.84
2019-03-08T16:16:23.113Z,35.29
2019-03-08T16:21:16.953Z,37.59
2019-03-08T16:26:11.025Z,38.98
2019-03-08T16:31:09.854Z,40.80
2019-03-08T16:36:22.254Z,42.60
2019-03-08T16:41:24.121Z,43.42
2019-03-08T16:46:31.958Z,44.97
2019-03-08T16:51:43.329Z,46.11
2019-03-08T16:56:54.474Z,46.66
2019-03-08T17:01:50.347Z,47.79
2019-03-08T17:06:46.191Z,48.61
2019-03-08T17:11:54.361Z,48.95
2019-03-08T17:16:50.168Z,49.46
2019-03-08T17:21:46.044Z,51.02
2019-03-08T17:26:41.917Z,51.19
2019-03-08T17:31:54.471Z,51.67
2019-03-08T17:36:53.206Z,52.06
2019-03-08T17:41:49.064Z,52.24
2019-03-08T17:46:44.848Z,54.57
2019-03-08T17:51:43.835Z,56.39
2019-03-08T17:56:45.599Z,60.93
2019-03-08T18:01:50.154Z,62.12
2019-03-08T18:07:04.048Z,60.81
2019-03-08T18:11:59.841Z,60.76
2019-03-08T18:16:58.480Z,60.23
2019-03-08T18:22:06.625Z,60.54
2019-03-08T18:27:02.543Z,60.42
2019-03-08T18:31:58.328Z,60.88
2019-03-08T18:36:54.217Z,61.69
2019-03-08T18:41:55.809Z,63.02
2019-03-08T18:46:52.019Z,63.68
2019-03-08T18:52:07.668Z,64.42
2019-03-08T18:57:09.741Z,64.77
2019-03-08T19:02:22.238Z,65.23
2019-03-08T19:07:27.040Z,65.32
2019-03-08T19:12:25.802Z,65.53
2019-03-08T19:17:38.637Z,65.96
2019-03-08T19:22:40.332Z,65.92
2019-03-08T19:27:36.557Z,66.33
2019-03-08T19:32:47.505Z,64.22
2019-03-08T19:37:58.363Z,62.81
2019-03-08T19:43:03.197Z,59.11
2019-03-08T19:48:16.176Z,57.24
2019-03-08T19:53:11.958Z,54.93
2019-03-08T19:58:13.880Z,55.66
2019-03-08T20:03:09.790Z,58.39
2019-03-08T20:08:22.131Z,60.44
2019-03-08T20:13:26.884Z,61.63
2019-03-08T20:18:22.921Z,63.50
2019-03-08T20:23:18.695Z,65.12
2019-03-08T20:28:14.568Z,65.90
2019-03-08T20:33:10.408Z,66.38
2019-03-08T20:38:06.255Z,66.66
2019-03-08T20:43:02.058Z,67.06
2019-03-08T20:47:56.414Z,67.25
2019-03-08T20:52:50.531Z,67.56
2019-03-08T20:57:44.498Z,67.87
2019-03-08T21:02:38.708Z,68.24
2019-03-08T21:07:32.708Z,68.30
2019-03-08T21:12:26.695Z,68.39
2019-03-08T21:17:20.612Z,67.93
2019-03-08T21:22:14.522Z,67.89
2019-03-08T21:27:08.511Z,67.75
2019-03-08T21:32:02.777Z,67.50
2019-03-08T21:36:56.694Z,67.64
2019-03-08T21:41:50.565Z,67.74
2019-03-08T21:46:44.458Z,67.27
2019-03-08T21:51:38.374Z,67.15
2019-03-08T21:56:32.237Z,66.99
2019-03-08T22:01:26.269Z,66.95
2019-03-08T22:06:20.665Z,66.86
2019-03-08T22:11:17.677Z,66.79
2019-03-08T22:16:11.590Z,66.67
2019-03-08T22:21:05.461Z,66.59
2019-03-08T22:25:59.451Z,66.76
2019-03-08T22:30:53.534Z,66.30
2019-03-08T22:42:52.125Z,66.16
2019-03-08T22:47:52.223Z,66.17
2019-03-08T22:52:46.296Z,66.01
2019-03-08T22:57:40.259Z,65.41
2019-03-08T23:02:34.155Z,65.48
2019-03-08T23:07:28.096Z,65.81
2019-03-08T23:12:22.012Z,65.47
2019-03-08T23:17:17.728Z,65.31
2019-03-08T23:22:11.659Z,65.15
2019-03-08T23:27:13.299Z,65.01
2019-03-08T23:32:12.110Z,64.72
2019-03-08T23:37:06.071Z,64.92
2019-03-08T23:42:00.047Z,65.11
2019-03-08T23:46:53.915Z,64.44
2019-03-08T23:51:47.993Z,64.11
2019-03-08T23:56:41.859Z,64.29
